createdAt,value
2023-02-07T00:00:10.915Z,3.1
2023-02-07T00:03:12.902Z,4.7
2023-02-07T00:06:14.796Z,3.9
2023-02-07T00:09:16.759Z,4.2
2023-02-07T00:12:18.746Z,3
2023-02-07T00:15:20.683Z,3.2
2023-02-07T00:18:22.646Z,3.1
2023-02-07T00:21:24.627Z,3.2
2023-02-07T00:24:26.575Z,3.3
2023-02-07T00:27:28.541Z,3.6
2023-02-07T00:30:30.630Z,4.2
2023-02-07T00:33:32.508Z,3.2
2023-02-07T00:36:34.439Z,3.2
2023-02-07T00:39:36.414Z,2.7
2023-02-07T00:42:38.371Z,2.3
2023-02-07T00:45:40.446Z,2.7
2023-02-07T00:48:42.330Z,3.2
2023-02-07T00:51:44.271Z,2
2023-02-07T00:54:46.228Z,2.9
2023-02-07T00:57:48.162Z,3.9
2023-02-07T01:00:50.177Z,4.3
2023-02-07T01:03:52.103Z,3.9
2023-02-07T01:06:54.109Z,2.9
2023-02-07T01:09:56.034Z,2.9
2023-02-07T01:12:57.984Z,2.4
2023-02-07T01:15:59.978Z,3.1
2023-02-07T01:19:01.882Z,3.3
2023-02-07T01:22:03.843Z,3.4
2023-02-07T01:25:05.796Z,2.9
2023-02-07T01:28:07.824Z,3.2
2023-02-07T01:31:09.816Z,2.5
2023-02-07T01:34:11.720Z,3
2023-02-07T01:37:13.686Z,3.5
2023-02-07T01:40:15.618Z,2.6
2023-02-07T01:43:17.575Z,3.6
2023-02-07T01:46:19.639Z,2.8
2023-02-07T01:49:21.519Z,2.6
2023-02-07T01:52:23.417Z,2.9
2023-02-07T01:55:25.395Z,2.6
2023-02-07T01:58:27.355Z,2.8
2023-02-07T02:01:29.397Z,2.6
2023-02-07T02:04:31.289Z,2.4
2023-02-07T02:07:33.222Z,3
2023-02-07T02:10:35.175Z,2.8
2023-02-07T02:13:37.149Z,2.6
2023-02-07T02:16:39.103Z,3.4
2023-02-07T02:19:41.056Z,3
2023-02-07T02:22:43.052Z,3.3
2023-02-07T02:25:45.007Z,3.8
2023-02-07T02:28:46.928Z,5.2
2023-02-07T02:31:48.946Z,3
2023-02-07T02:34:50.893Z,3.7
2023-02-07T02:37:52.812Z,3.7
2023-02-07T02:40:54.802Z,3.4
2023-02-07T02:43:56.777Z,4.7
2023-02-07T02:46:58.734Z,3.2
2023-02-07T02:50:00.713Z,3.3
2023-02-07T02:53:02.668Z,5
2023-02-07T02:56:04.641Z,4
2023-02-07T02:59:06.598Z,4.1
2023-02-07T03:02:08.590Z,3.9
2023-02-07T03:05:10.554Z,5.6
2023-02-07T03:08:12.511Z,3.7
2023-02-07T03:11:14.479Z,3.9
2023-02-07T03:14:16.442Z,4.6
2023-02-07T03:17:18.393Z,3.8
2023-02-07T03:20:20.328Z,5.2
2023-02-07T03:23:22.288Z,5.5
2023-02-07T03:26:24.233Z,5.1
2023-02-07T03:29:26.178Z,5.2
2023-02-07T03:32:28.138Z,5.6
2023-02-07T03:35:30.118Z,6
2023-02-07T03:38:32.066Z,5.4
2023-02-07T03:41:34.014Z,5.5
2023-02-07T03:44:35.987Z,5.4
2023-02-07T03:47:37.943Z,7.9
2023-02-07T03:50:39.923Z,5.8
2023-02-07T03:53:42.036Z,6.5
2023-02-07T03:56:43.886Z,6.3
2023-02-07T03:59:45.853Z,6
2023-02-07T04:02:47.819Z,8.4
2023-02-07T04:05:49.787Z,5.7
2023-02-07T04:08:51.752Z,8.3
2023-02-07T04:11:53.689Z,5.7
2023-02-07T04:14:55.652Z,7.9
2023-02-07T04:17:57.640Z,7.7
2023-02-07T04:20:59.571Z,9.3
2023-02-07T04:24:01.554Z,8.4
2023-02-07T04:27:03.517Z,9.7
2023-02-07T04:30:05.452Z,8.5
2023-02-07T04:33:07.398Z,10.6
2023-02-07T04:36:09.349Z,9.8
2023-02-07T04:39:11.298Z,9.2
2023-02-07T04:42:13.246Z,9.9
2023-02-07T04:45:15.263Z,9.6
2023-02-07T04:48:17.232Z,9.7
2023-02-07T04:51:19.188Z,9.8
2023-02-07T04:54:21.116Z,8.3
2023-02-07T04:57:23.080Z,9.4
2023-02-07T05:00:25.046Z,11.1
2023-02-07T05:03:27.009Z,11
2023-02-07T05:06:28.989Z,12.7
2023-02-07T05:09:30.941Z,11.6
2023-02-07T05:12:32.899Z,9.9
2023-02-07T05:15:34.854Z,11.5
2023-02-07T05:18:36.832Z,9.9
2023-02-07T05:21:38.776Z,10.1
2023-02-07T05:24:40.742Z,11.7
2023-02-07T05:27:42.711Z,13.4
2023-02-07T05:30:44.792Z,11.2
2023-02-07T05:33:46.635Z,12.4
2023-02-07T05:36:48.598Z,10.5
2023-02-07T05:39:50.570Z,10.2
2023-02-07T05:42:52.604Z,10.4
2023-02-07T05:45:54.577Z,9.1
2023-02-07T05:48:56.492Z,11.7
2023-02-07T05:51:58.455Z,11.8
2023-02-07T05:55:00.556Z,12.2
2023-02-07T05:58:02.381Z,11.7
2023-02-07T06:01:04.510Z,11.9
2023-02-07T06:04:06.321Z,11.2
2023-02-07T06:07:08.240Z,11
2023-02-07T06:10:10.225Z,14.4
2023-02-07T06:13:12.154Z,11.6
2023-02-07T06:16:14.191Z,11.5
2023-02-07T06:19:16.094Z,11.6
2023-02-07T06:22:18.067Z,15
2023-02-07T06:25:21.391Z,12.9
2023-02-07T06:28:21.982Z,13
2023-02-07T06:31:23.967Z,13.7
2023-02-07T06:34:25.869Z,13.7
2023-02-07T06:37:27.844Z,11.9
2023-02-07T06:40:29.811Z,13.8
2023-02-07T06:43:31.784Z,13.5
2023-02-07T06:46:33.794Z,16.5
2023-02-07T06:49:35.743Z,16.5
2023-02-07T06:52:37.664Z,13.7
2023-02-07T06:55:39.953Z,13.4
2023-02-07T06:58:41.582Z,17.1
2023-02-07T07:01:43.683Z,14.2
2023-02-07T07:04:45.521Z,17.8
2023-02-07T07:07:47.483Z,18.6
2023-02-07T07:10:49.431Z,17.3
2023-02-07T07:13:51.426Z,17
2023-02-07T07:16:54.771Z,16.3
2023-02-07T07:19:55.317Z,16.7
2023-02-07T07:22:57.279Z,17.1
2023-02-07T07:25:59.261Z,19.3
2023-02-07T07:29:01.202Z,24.3
2023-02-07T07:32:03.210Z,18.2
2023-02-07T07:35:05.175Z,21.8
2023-02-07T07:38:07.117Z,15.4
2023-02-07T07:41:09.096Z,16.9
2023-02-07T07:44:11.047Z,20.4
2023-02-07T07:47:12.996Z,14.9
2023-02-07T07:50:14.993Z,15.5
2023-02-07T07:53:16.931Z,13.7
2023-02-07T07:56:18.898Z,15.6
2023-02-07T07:59:24.176Z,16.6
2023-02-07T08:02:22.821Z,17.7
2023-02-07T08:05:24.788Z,19.2
2023-02-07T08:08:26.777Z,21.8
2023-02-07T08:11:28.699Z,20
2023-02-07T08:14:30.669Z,16.8
2023-02-07T08:17:32.635Z,18.2
2023-02-07T08:20:34.583Z,17.5
2023-02-07T08:23:36.544Z,16.5
2023-02-07T08:26:38.496Z,14.6
2023-02-07T08:29:40.473Z,19.2
2023-02-07T08:32:42.418Z,17.1
2023-02-07T08:35:44.393Z,17
2023-02-07T08:38:46.329Z,18.2
2023-02-07T08:41:48.296Z,15.2
2023-02-07T08:44:50.286Z,15.5
2023-02-07T08:47:52.266Z,19.5
2023-02-07T08:50:54.592Z,17.3
2023-02-07T08:53:56.188Z,18
2023-02-07T08:56:58.100Z,16.7
2023-02-07T09:00:00.069Z,16.4
2023-02-07T09:03:02.048Z,17.8
2023-02-07T09:06:04.000Z,17.3
2023-02-07T09:09:06.045Z,16.9
2023-02-07T09:12:07.913Z,17.5
2023-02-07T09:15:09.882Z,16.4
2023-02-07T09:18:11.820Z,16.7
2023-02-07T09:21:13.806Z,15.4
2023-02-07T09:24:15.777Z,15.8
2023-02-07T09:27:17.751Z,14.4
2023-02-07T09:30:19.703Z,14.7
2023-02-07T09:33:21.646Z,14.9
2023-02-07T09:36:23.588Z,16.5
2023-02-07T09:39:25.619Z,18.4
2023-02-07T09:42:27.516Z,16.2
2023-02-07T09:45:29.645Z,17.1
2023-02-07T09:48:31.448Z,14.7
2023-02-07T09:51:33.412Z,16.5
2023-02-07T09:54:35.380Z,14.4
2023-02-07T09:57:37.342Z,14.7
2023-02-07T10:00:39.611Z,14.3
2023-02-07T10:03:41.269Z,17.2
2023-02-07T10:06:43.229Z,17.5
2023-02-07T10:09:45.254Z,15.1
2023-02-07T10:12:47.224Z,18
2023-02-07T10:15:49.248Z,18.2
2023-02-07T10:18:51.167Z,17.2
2023-02-07T10:21:53.107Z,18.7
2023-02-07T10:24:55.054Z,14.5
2023-02-07T10:27:57.070Z,16.5
2023-02-07T10:30:59.029Z,15.6
2023-02-07T10:34:00.925Z,15.6
2023-02-07T10:37:02.925Z,15.1
2023-02-07T10:40:04.878Z,14.6
2023-02-07T10:43:06.878Z,16.3
2023-02-07T10:46:08.814Z,18.1
2023-02-07T10:49:10.725Z,15.2
2023-02-07T10:52:12.924Z,16.9
2023-02-07T10:55:14.658Z,17
2023-02-07T10:58:22.683Z,17.1
2023-02-07T11:01:18.651Z,13.9
2023-02-07T11:04:20.554Z,15.8
2023-02-07T11:07:22.552Z,15.5
2023-02-07T11:10:24.533Z,16.3
2023-02-07T11:13:27.826Z,17.5
2023-02-07T11:16:28.486Z,15
2023-02-07T11:19:30.391Z,16.4
2023-02-07T11:22:32.336Z,17.7
2023-02-07T11:25:34.304Z,15.5
2023-02-07T11:28:36.283Z,13.8
2023-02-07T11:31:38.363Z,17.1
2023-02-07T11:34:40.205Z,14.1
2023-02-07T11:37:42.206Z,16.1
2023-02-07T11:40:44.138Z,14.8
2023-02-07T11:43:46.092Z,15
2023-02-07T11:46:48.182Z,16.8
2023-02-07T11:49:50.034Z,16.2
2023-02-07T11:52:51.999Z,15.8
2023-02-07T11:55:54.517Z,14.7
2023-02-07T11:58:55.944Z,13.6
2023-02-07T12:01:57.932Z,15.6
2023-02-07T12:04:59.913Z,17.3
2023-02-07T12:08:03.407Z,13.4
2023-02-07T12:11:03.801Z,16.5
2023-02-07T12:14:05.762Z,15
2023-02-07T12:17:07.722Z,16.7
2023-02-07T12:20:09.689Z,16
2023-02-07T12:23:34.761Z,15.1
2023-02-07T12:26:13.620Z,14.2
2023-02-07T12:29:15.576Z,16.3
2023-02-07T12:32:17.616Z,15.3
2023-02-07T12:35:19.505Z,14.6
2023-02-07T12:38:21.498Z,15.2
2023-02-07T12:41:23.451Z,17.2
2023-02-07T12:44:25.382Z,15.1
2023-02-07T12:47:27.350Z,13.9
2023-02-07T12:50:29.299Z,16.3
2023-02-07T12:53:31.265Z,13
2023-02-07T12:56:33.245Z,16.4
2023-02-07T12:59:35.198Z,14.3
2023-02-07T13:02:37.183Z,13.7
2023-02-07T13:05:39.417Z,16.5
2023-02-07T13:08:41.085Z,13.6
2023-02-07T13:11:43.094Z,14.1
2023-02-07T13:14:45.006Z,13.7
2023-02-07T13:17:46.976Z,12.7
2023-02-07T13:20:48.922Z,14.4
2023-02-07T13:23:50.909Z,16
2023-02-07T13:26:52.889Z,14.4
2023-02-07T13:29:54.807Z,12.6
2023-02-07T13:32:56.788Z,12.4
2023-02-07T13:35:58.738Z,12
2023-02-07T13:39:00.696Z,12
2023-02-07T13:42:02.660Z,12.7
2023-02-07T13:45:04.622Z,14.1
2023-02-07T13:48:06.588Z,12.2
2023-02-07T13:51:08.551Z,11.7
2023-02-07T13:54:10.519Z,10.6
2023-02-07T13:57:12.475Z,12
2023-02-07T14:00:14.463Z,13.4
2023-02-07T14:03:16.468Z,10.6
2023-02-07T14:06:18.428Z,10.9
2023-02-07T14:09:20.379Z,11.6
2023-02-07T14:12:22.346Z,12.1
2023-02-07T14:15:24.301Z,11.9
2023-02-07T14:18:26.260Z,13.1
2023-02-07T14:21:28.266Z,12
2023-02-07T14:24:30.190Z,12
2023-02-07T14:27:32.150Z,13.3
2023-02-07T14:30:34.119Z,8.9
2023-02-07T14:33:36.096Z,9.9
2023-02-07T14:36:38.046Z,9.9
2023-02-07T14:39:39.988Z,9.2
2023-02-07T14:42:41.964Z,9.4
2023-02-07T14:45:43.941Z,13.8
2023-02-07T14:48:45.878Z,9.8
2023-02-07T14:51:47.967Z,12.2
2023-02-07T14:54:49.810Z,9.9
2023-02-07T14:57:51.763Z,11.7
2023-02-07T15:00:53.714Z,11.2
2023-02-07T15:03:55.683Z,12.7
2023-02-07T15:06:57.651Z,10.9
2023-02-07T15:09:59.591Z,11.9
2023-02-07T15:13:01.604Z,11.7
2023-02-07T15:16:03.582Z,12.3
2023-02-07T15:19:05.483Z,15.3
2023-02-07T15:22:17.163Z,13.1
2023-02-07T15:25:09.422Z,12.4
2023-02-07T15:28:21.492Z,15.5
2023-02-07T15:31:13.428Z,13.2
2023-02-07T15:34:15.301Z,12.8
2023-02-07T15:37:17.273Z,14.2
2023-02-07T15:40:19.270Z,12.6
2023-02-07T15:43:21.197Z,13.8
2023-02-07T15:46:23.180Z,14.6
2023-02-07T15:49:25.116Z,15
2023-02-07T15:52:27.117Z,13.5
2023-02-07T15:55:29.029Z,13.5
2023-02-07T15:58:30.981Z,13.4
2023-02-07T16:01:32.965Z,13.5
2023-02-07T16:04:34.951Z,12.8
2023-02-07T16:07:36.890Z,12.2
2023-02-07T16:10:39.271Z,10.9
2023-02-07T16:13:40.829Z,10.8
2023-02-07T16:16:42.789Z,12.2
2023-02-07T16:19:44.756Z,13.3
2023-02-07T16:22:46.726Z,11.3
2023-02-07T16:25:48.715Z,12.1
2023-02-07T16:28:50.664Z,11.1
2023-02-07T16:31:52.699Z,13.1
2023-02-07T16:34:59.800Z,14.4
2023-02-07T16:37:56.561Z,14.6
2023-02-07T16:40:58.497Z,11.4
2023-02-07T16:44:00.494Z,12
2023-02-07T16:47:02.421Z,11.2
2023-02-07T16:50:04.379Z,13.4
2023-02-07T16:53:06.346Z,14.3
2023-02-07T16:56:08.300Z,12.9
2023-02-07T16:59:10.254Z,16.8
2023-02-07T17:02:12.258Z,12.2
2023-02-07T17:05:14.201Z,14.4
2023-02-07T17:08:16.158Z,14
2023-02-07T17:11:18.093Z,10.8
2023-02-07T17:14:20.099Z,13.7
2023-02-07T17:17:22.052Z,12.6
2023-02-07T17:20:23.974Z,14.2
2023-02-07T17:23:25.938Z,14.1
2023-02-07T17:26:27.900Z,10.7
2023-02-07T17:29:29.864Z,14.8
2023-02-07T17:32:31.834Z,15
2023-02-07T17:35:33.803Z,16.9
2023-02-07T17:38:35.756Z,12.4
2023-02-07T17:41:37.765Z,14.4
2023-02-07T17:44:39.699Z,13.3
2023-02-07T17:47:41.817Z,12.8
2023-02-07T17:50:43.611Z,11.9
2023-02-07T17:53:45.584Z,15.1
2023-02-07T17:56:47.540Z,12
2023-02-07T17:59:49.502Z,11.7
2023-02-07T18:02:51.464Z,14.4
2023-02-07T18:05:53.403Z,15.3
2023-02-07T18:08:57.159Z,11.9
2023-02-07T18:11:57.347Z,14.1
2023-02-07T18:14:59.294Z,11.4
2023-02-07T18:18:01.276Z,12.2
2023-02-07T18:21:03.221Z,12.4
2023-02-07T18:24:05.186Z,11.4
2023-02-07T18:27:07.131Z,13.8
2023-02-07T18:30:09.092Z,12.4
2023-02-07T18:33:12.765Z,12
2023-02-07T18:36:13.249Z,13.3
2023-02-07T18:39:14.997Z,10.3
2023-02-07T18:42:16.986Z,10.3
2023-02-07T18:45:18.962Z,13.3
2023-02-07T18:48:20.951Z,14.1
2023-02-07T18:51:22.890Z,18.1
2023-02-07T18:54:24.823Z,10.9
2023-02-07T18:57:26.816Z,12.5
2023-02-07T19:00:28.769Z,14.8
2023-02-07T19:03:30.746Z,15.2
2023-02-07T19:06:32.723Z,14.9
2023-02-07T19:09:34.657Z,18.4
2023-02-07T19:12:36.610Z,17.8
2023-02-07T19:15:38.616Z,17.6
2023-02-07T19:18:40.561Z,14.4
2023-02-07T19:21:42.493Z,17.3
2023-02-07T19:24:44.448Z,15.1
2023-02-07T19:27:46.411Z,17.1
2023-02-07T19:30:48.435Z,16.4
2023-02-07T19:33:50.359Z,15.4
2023-02-07T19:36:52.327Z,16.1
2023-02-07T19:39:54.292Z,17.3
2023-02-07T19:42:56.270Z,13.4
2023-02-07T19:45:58.227Z,15.8
2023-02-07T19:49:00.180Z,17
2023-02-07T19:52:02.109Z,16.8
2023-02-07T19:55:04.078Z,14.1
2023-02-07T19:58:06.035Z,14.9
2023-02-07T20:01:07.987Z,14.5
2023-02-07T20:04:10.111Z,14.3
2023-02-07T20:07:11.905Z,18.2
2023-02-07T20:10:13.874Z,17.2
2023-02-07T20:13:15.819Z,14
2023-02-07T20:16:17.839Z,16.8
2023-02-07T20:19:20.399Z,14.3
2023-02-07T20:22:21.727Z,14.2
2023-02-07T20:25:23.666Z,15.9
2023-02-07T20:28:25.678Z,16.9
2023-02-07T20:31:27.679Z,15
2023-02-07T20:34:29.619Z,15
2023-02-07T20:37:31.575Z,16.5
2023-02-07T20:40:33.560Z,20.5
2023-02-07T20:43:35.548Z,17.2
2023-02-07T20:46:37.512Z,19
2023-02-07T20:49:39.472Z,16.8
2023-02-07T20:52:41.420Z,21.7
2023-02-07T20:55:43.602Z,17.5
2023-02-07T20:58:45.371Z,17.8
2023-02-07T21:01:47.363Z,15.3
2023-02-07T21:04:49.303Z,20.8
2023-02-07T21:07:51.317Z,20.8
2023-02-07T21:10:53.246Z,18.2
2023-02-07T21:13:55.233Z,19
2023-02-07T21:16:57.150Z,20.1
2023-02-07T21:19:59.112Z,18.4
2023-02-07T21:23:01.116Z,20.3
2023-02-07T21:26:03.042Z,16
2023-02-07T21:29:04.997Z,20
2023-02-07T21:32:07.037Z,20.2
2023-02-07T21:35:08.953Z,19.4
2023-02-07T21:38:10.887Z,16.6
2023-02-07T21:41:12.845Z,18.5
2023-02-07T21:44:14.788Z,19.6
2023-02-07T21:47:16.759Z,16.5
2023-02-07T21:50:18.708Z,17.7
2023-02-07T21:53:20.685Z,18
2023-02-07T21:56:23.836Z,21.2
2023-02-07T21:59:24.591Z,20.1
2023-02-07T22:02:26.582Z,17.8
2023-02-07T22:05:28.529Z,21.7
2023-02-07T22:08:30.469Z,20
2023-02-07T22:11:32.432Z,19.3
2023-02-07T22:14:34.408Z,19.4
2023-02-07T22:17:36.353Z,20.4
2023-02-07T22:20:38.640Z,19.2
2023-02-07T22:23:40.299Z,19.3
2023-02-07T22:26:42.312Z,20.1
2023-02-07T22:29:44.244Z,20.4
2023-02-07T22:32:46.197Z,23.2
2023-02-07T22:35:48.160Z,21.1
2023-02-07T22:38:50.115Z,22.3
2023-02-07T22:41:52.106Z,19.8
2023-02-07T22:44:54.071Z,15.2
2023-02-07T22:47:56.002Z,18.8
2023-02-07T22:50:57.962Z,22.5
2023-02-07T22:53:59.904Z,21
2023-02-07T22:57:01.868Z,22.5
2023-02-07T23:00:03.827Z,20.4
2023-02-07T23:03:05.777Z,18
2023-02-07T23:06:07.754Z,18.2
2023-02-07T23:09:09.776Z,19.3
2023-02-07T23:12:11.681Z,20.5
2023-02-07T23:15:13.868Z,19.7
2023-02-07T23:18:15.686Z,20.4
2023-02-07T23:21:17.600Z,18.2
2023-02-07T23:24:19.560Z,24.6
2023-02-07T23:27:21.556Z,19.2
2023-02-07T23:30:23.543Z,22.1
2023-02-07T23:33:25.465Z,20.9
2023-02-07T23:36:27.444Z,19.2
2023-02-07T23:39:29.381Z,20.9
2023-02-07T23:42:31.353Z,19.7
2023-02-07T23:45:33.315Z,23.3
2023-02-07T23:48:37.722Z,21.3
2023-02-07T23:51:37.287Z,24.6
2023-02-07T23:54:39.249Z,19.3
2023-02-07T23:57:41.237Z,18.9
